createdAt,value
2023-05-11T00:00:41.999Z,15.57
2023-05-11T00:03:09.898Z,16.90
2023-05-11T00:05:37.655Z,18.37
2023-05-11T00:08:05.322Z,21.87
2023-05-11T00:10:34.285Z,18.30
2023-05-11T00:13:01.871Z,17.00
2023-05-11T00:15:29.610Z,16.80
2023-05-11T00:17:57.267Z,16.07
2023-05-11T00:20:24.974Z,16.90
2023-05-11T00:22:52.667Z,19.63
2023-05-11T00:25:20.588Z,18.30
2023-05-11T00:27:49.531Z,19.67
2023-05-11T00:30:17.471Z,18.50
2023-05-11T00:32:45.798Z,20.80
2023-05-11T00:35:13.592Z,20.80
2023-05-11T00:37:42.108Z,21.30
2023-05-11T00:40:10.365Z,22.53
2023-05-11T00:42:37.964Z,24.57
2023-05-11T00:45:08.114Z,20.07
2023-05-11T00:47:36.175Z,24.43
2023-05-11T00:50:04.039Z,22.03
2023-05-11T00:52:31.810Z,25.83
2023-05-11T00:54:59.400Z,24.97
2023-05-11T00:57:27.195Z,24.10
2023-05-11T00:59:54.885Z,26.70
2023-05-11T01:02:24.076Z,25.13
2023-05-11T01:04:52.686Z,24.40
2023-05-11T01:07:24.164Z,24.60
2023-05-11T01:10:01.039Z,24.00
2023-05-11T01:12:41.164Z,21.40
2023-05-11T01:15:12.721Z,21.53
2023-05-11T01:17:47.387Z,23.03
2023-05-11T01:20:19.665Z,23.47
2023-05-11T01:23:03.744Z,24.37
2023-05-11T01:26:03.712Z,24.17
2023-05-11T01:28:53.822Z,24.73
2023-05-11T01:31:26.770Z,22.77
2023-05-11T01:33:57.652Z,25.03
2023-05-11T01:36:31.487Z,26.07
2023-05-11T01:39:03.939Z,24.50
2023-05-11T01:41:34.688Z,22.87
2023-05-11T01:44:06.237Z,25.73
2023-05-11T01:46:36.039Z,26.53
2023-05-11T01:49:07.217Z,24.23
2023-05-11T01:51:38.363Z,26.40
2023-05-11T01:54:08.356Z,24.20
2023-05-11T01:56:38.164Z,27.20
2023-05-11T01:59:06.810Z,24.90
2023-05-11T02:01:37.387Z,26.03
2023-05-11T02:04:06.765Z,24.70
2023-05-11T02:06:37.786Z,30.10
2023-05-11T02:09:06.620Z,27.90
2023-05-11T02:11:36.732Z,29.40
2023-05-11T02:14:07.723Z,27.97
2023-05-11T02:16:37.522Z,25.50
2023-05-11T02:19:08.018Z,30.47
2023-05-11T02:21:38.813Z,27.93
2023-05-11T02:24:08.629Z,26.97
2023-05-11T02:26:36.934Z,26.63
2023-05-11T02:29:04.745Z,27.87
2023-05-11T02:31:41.342Z,26.47
2023-05-11T02:34:20.698Z,30.07
2023-05-11T02:36:50.295Z,26.97
2023-05-11T02:39:22.567Z,25.73
2023-05-11T02:41:57.053Z,27.80
2023-05-11T02:44:32.084Z,28.50
2023-05-11T02:47:04.572Z,26.77
2023-05-11T02:49:39.063Z,26.90
2023-05-11T02:52:11.589Z,28.43
2023-05-11T02:54:45.092Z,29.37
2023-05-11T02:57:13.023Z,26.80
2023-05-11T02:59:40.949Z,28.80
2023-05-11T03:02:10.514Z,31.33
2023-05-11T03:04:39.403Z,27.23
2023-05-11T03:07:07.654Z,30.97
2023-05-11T03:09:35.993Z,31.07
2023-05-11T03:12:05.201Z,29.97
2023-05-11T03:14:36.152Z,30.33
2023-05-11T03:17:04.510Z,30.80
2023-05-11T03:19:34.111Z,29.27
2023-05-11T03:22:02.421Z,28.43
2023-05-11T03:24:31.259Z,30.40
2023-05-11T03:27:00.474Z,30.80
2023-05-11T03:29:30.693Z,33.23
2023-05-11T03:31:58.523Z,28.47
2023-05-11T03:34:26.696Z,28.40
2023-05-11T03:36:58.458Z,28.20
2023-05-11T03:39:28.208Z,32.90
2023-05-11T03:41:57.981Z,30.00
2023-05-11T03:44:26.895Z,31.53
2023-05-11T03:46:57.570Z,31.10
2023-05-11T03:49:25.594Z,33.20
2023-05-11T03:51:55.548Z,36.23
2023-05-11T03:54:24.978Z,32.40
2023-05-11T03:56:52.865Z,33.60
2023-05-11T03:59:20.996Z,30.80
2023-05-11T04:01:52.911Z,32.33
2023-05-11T04:04:21.118Z,31.93
2023-05-11T04:06:48.796Z,31.77
2023-05-11T04:09:21.296Z,32.50
2023-05-11T04:11:48.981Z,28.30
2023-05-11T04:14:17.463Z,31.80
2023-05-11T04:16:45.172Z,33.80
2023-05-11T04:19:12.825Z,31.13
2023-05-11T04:21:40.498Z,33.03
2023-05-11T04:24:08.461Z,32.00
2023-05-11T04:26:37.419Z,34.57
2023-05-11T04:29:05.162Z,29.00
2023-05-11T04:31:33.172Z,29.97
2023-05-11T04:34:02.788Z,33.60
2023-05-11T04:36:31.223Z,34.03
2023-05-11T04:38:59.078Z,32.73
2023-05-11T04:41:26.716Z,33.70
2023-05-11T04:44:00.419Z,30.90
2023-05-11T04:46:28.702Z,29.17
2023-05-11T04:48:56.573Z,31.07
2023-05-11T04:51:24.221Z,29.73
2023-05-11T04:53:51.964Z,29.30
2023-05-11T04:56:21.454Z,32.23
2023-05-11T04:58:50.490Z,32.70
2023-05-11T05:01:19.552Z,30.70
2023-05-11T05:03:49.577Z,32.20
2023-05-11T05:06:18.323Z,31.67
2023-05-11T05:08:45.924Z,31.40
2023-05-11T05:11:13.602Z,33.33
2023-05-11T05:13:41.494Z,28.90
2023-05-11T05:16:09.086Z,30.80
2023-05-11T05:18:38.137Z,31.90
2023-05-11T05:21:06.387Z,33.50
2023-05-11T05:23:34.057Z,32.87
2023-05-11T05:26:01.805Z,31.53
2023-05-11T05:28:32.162Z,31.20
2023-05-11T05:31:00.187Z,30.97
2023-05-11T05:33:28.806Z,29.27
2023-05-11T05:35:57.860Z,28.87
2023-05-11T05:38:26.686Z,28.20
2023-05-11T05:40:54.561Z,30.53
2023-05-11T05:43:22.311Z,27.53
2023-05-11T05:45:50.540Z,28.53
2023-05-11T05:48:18.243Z,27.60
2023-05-11T05:50:45.881Z,28.70
2023-05-11T05:53:14.904Z,27.30
2023-05-11T05:55:42.534Z,28.80
2023-05-11T05:58:10.373Z,28.10
2023-05-11T06:00:38.135Z,29.80
2023-05-11T06:03:09.793Z,25.77
2023-05-11T06:05:37.552Z,28.10
2023-05-11T06:08:10.457Z,28.07
2023-05-11T06:10:40.791Z,28.87
2023-05-11T06:13:10.565Z,28.23
2023-05-11T06:15:42.577Z,26.03
2023-05-11T06:18:19.091Z,28.23
2023-05-11T06:20:47.028Z,27.10
2023-05-11T06:23:16.058Z,27.37
2023-05-11T06:25:46.377Z,28.10
2023-05-11T06:28:14.334Z,25.40
2023-05-11T06:30:42.110Z,25.97
2023-05-11T06:33:10.758Z,30.30
2023-05-11T06:35:40.077Z,25.20
2023-05-11T06:38:10.170Z,24.83
2023-05-11T06:40:38.268Z,25.90
2023-05-11T06:43:08.069Z,25.70
2023-05-11T06:45:46.175Z,25.33
2023-05-11T06:48:13.946Z,19.90
2023-05-11T06:50:41.772Z,18.80
2023-05-11T06:53:13.403Z,19.30
2023-05-11T06:55:41.518Z,19.43
2023-05-11T06:58:10.874Z,20.20
2023-05-11T07:00:38.587Z,18.33
2023-05-11T07:03:06.696Z,20.03
2023-05-11T07:05:34.519Z,18.80
2023-05-11T07:08:02.084Z,19.90
2023-05-11T07:10:29.813Z,20.83
2023-05-11T07:12:57.494Z,20.50
2023-05-11T07:15:26.458Z,21.77
2023-05-11T07:17:54.245Z,18.73
2023-05-11T07:20:21.955Z,19.17
2023-05-11T07:22:49.659Z,21.57
2023-05-11T07:25:17.260Z,19.20
2023-05-11T07:27:44.797Z,20.30
2023-05-11T07:30:13.112Z,21.77
2023-05-11T07:32:42.052Z,19.27
2023-05-11T07:35:09.749Z,20.13
2023-05-11T07:37:37.443Z,19.27
2023-05-11T07:40:06.595Z,17.93
2023-05-11T07:42:34.286Z,16.97
2023-05-11T07:45:01.883Z,19.83
2023-05-11T07:47:29.549Z,19.03
2023-05-11T07:49:58.557Z,18.97
2023-05-11T07:52:26.622Z,18.77
2023-05-11T07:54:54.239Z,20.63
2023-05-11T07:57:21.853Z,18.53
2023-05-11T07:59:49.470Z,17.00
2023-05-11T08:02:18.756Z,16.80
2023-05-11T08:04:47.692Z,15.37
2023-05-11T08:07:16.718Z,19.30
2023-05-11T08:09:44.356Z,16.07
2023-05-11T08:12:12.098Z,16.57
2023-05-11T08:14:39.845Z,17.37
2023-05-11T08:17:07.460Z,17.07
2023-05-11T08:19:35.065Z,18.53
2023-05-11T08:22:02.735Z,17.13
2023-05-11T08:24:31.705Z,17.10
2023-05-11T08:26:59.726Z,18.00
2023-05-11T08:29:27.510Z,18.00
2023-05-11T08:31:55.274Z,15.40
2023-05-11T08:34:23.351Z,17.63
2023-05-11T08:36:51.835Z,16.43
2023-05-11T08:39:33.339Z,15.53
2023-05-11T08:42:10.727Z,16.40
2023-05-11T08:44:43.494Z,15.80
2023-05-11T08:47:22.569Z,18.00
2023-05-11T08:49:52.767Z,16.27
2023-05-11T08:52:20.568Z,16.70
2023-05-11T08:54:48.476Z,17.43
2023-05-11T08:57:17.471Z,18.20
2023-05-11T08:59:46.739Z,16.73
2023-05-11T09:02:18.108Z,21.27
2023-05-11T09:04:48.901Z,21.70
2023-05-11T09:07:18.154Z,20.43
2023-05-11T09:09:47.198Z,19.27
2023-05-11T09:12:14.858Z,20.77
2023-05-11T09:14:44.163Z,21.43
2023-05-11T09:17:12.046Z,22.20
2023-05-11T09:19:58.123Z,21.10
2023-05-11T09:22:27.768Z,22.57
2023-05-11T09:24:57.230Z,19.87
2023-05-11T09:27:25.949Z,20.40
2023-05-11T09:29:55.662Z,21.80
2023-05-11T09:32:23.519Z,18.33
2023-05-11T09:34:51.205Z,17.87
2023-05-11T09:37:19.900Z,19.80
2023-05-11T09:40:14.158Z,18.50
2023-05-11T09:42:35.253Z,18.13
2023-05-11T09:45:04.670Z,17.13
2023-05-11T09:47:40.065Z,18.60
2023-05-11T09:50:17.710Z,16.50
2023-05-11T09:52:52.013Z,17.20
2023-05-11T09:55:19.975Z,17.53
2023-05-11T09:57:55.084Z,17.20
2023-05-11T10:00:25.196Z,17.70
2023-05-11T10:03:03.974Z,16.60
2023-05-11T10:05:32.888Z,18.27
2023-05-11T10:08:02.673Z,16.00
2023-05-11T10:10:32.797Z,17.33
2023-05-11T10:13:02.334Z,17.20
2023-05-11T10:15:36.537Z,15.73
2023-05-11T10:18:08.355Z,15.93
2023-05-11T10:20:36.178Z,16.93
2023-05-11T10:23:04.608Z,14.33
2023-05-11T10:25:32.580Z,16.53
2023-05-11T10:28:00.530Z,16.63
2023-05-11T10:30:28.443Z,16.17
2023-05-11T10:32:58.980Z,17.17
2023-05-11T10:35:27.642Z,16.60
2023-05-11T10:37:55.666Z,18.30
2023-05-11T10:40:23.662Z,17.40
2023-05-11T10:43:22.630Z,18.97
2023-05-11T10:45:58.816Z,17.53
2023-05-11T10:48:48.975Z,17.07
2023-05-11T10:51:56.963Z,19.03
2023-05-11T10:54:39.048Z,25.70
2023-05-11T10:57:16.472Z,26.13
2023-05-11T11:00:14.285Z,25.03
2023-05-11T11:02:42.992Z,24.07
2023-05-11T11:05:17.221Z,21.60
2023-05-11T11:07:58.639Z,20.20
2023-05-11T11:10:34.587Z,22.77
2023-05-11T11:13:03.706Z,22.20
2023-05-11T11:16:04.656Z,22.67
2023-05-11T11:18:34.216Z,22.30
2023-05-11T11:21:04.467Z,20.33
2023-05-11T11:23:46.119Z,22.77
2023-05-11T11:26:15.835Z,21.90
2023-05-11T11:29:13.818Z,21.80
2023-05-11T11:31:42.459Z,22.07
2023-05-11T11:34:37.313Z,21.73
2023-05-11T11:37:09.807Z,21.10
2023-05-11T11:39:50.004Z,21.67
2023-05-11T11:42:19.327Z,23.40
2023-05-11T11:44:48.327Z,24.03
2023-05-11T11:47:17.506Z,22.13
2023-05-11T11:49:47.330Z,22.87
2023-05-11T11:52:34.380Z,22.90
2023-05-11T11:55:03.366Z,21.53
2023-05-11T11:57:44.054Z,19.10
2023-05-11T12:00:12.865Z,17.10
2023-05-11T12:02:42.373Z,13.63
2023-05-11T12:05:14.056Z,13.27
2023-05-11T12:07:45.907Z,13.23
2023-05-11T12:10:15.187Z,15.17
2023-05-11T12:12:45.815Z,14.90
2023-05-11T12:15:24.542Z,16.47
2023-05-11T12:17:52.267Z,14.13
2023-05-11T12:20:21.153Z,13.70
2023-05-11T12:22:50.748Z,17.77
2023-05-11T12:25:19.429Z,16.90
2023-05-11T12:27:49.312Z,15.20
2023-05-11T12:30:21.701Z,19.20
2023-05-11T12:35:25.440Z,18.13
2023-05-11T12:37:54.819Z,17.80
2023-05-11T12:40:22.751Z,14.73
2023-05-11T12:42:51.931Z,16.47
2023-05-11T12:45:20.489Z,16.50
2023-05-11T12:47:48.569Z,20.10
2023-05-11T12:50:16.680Z,19.70
2023-05-11T12:52:44.472Z,17.93
2023-05-11T12:55:13.428Z,16.97
2023-05-11T12:57:41.538Z,19.63
2023-05-11T13:00:12.318Z,19.97
2023-05-11T13:02:50.767Z,17.03
2023-05-11T13:05:20.595Z,20.57
2023-05-11T13:07:48.650Z,16.07
2023-05-11T13:10:17.584Z,19.43
2023-05-11T13:12:52.432Z,17.20
2023-05-11T13:15:21.729Z,18.07
2023-05-11T13:17:56.218Z,18.10
2023-05-11T13:20:27.178Z,18.97
2023-05-11T13:23:05.199Z,20.77
2023-05-11T13:25:35.340Z,21.60
2023-05-11T13:28:03.268Z,18.17
2023-05-11T13:30:33.426Z,16.63
2023-05-11T13:33:02.443Z,17.43
2023-05-11T13:35:30.294Z,18.40
2023-05-11T13:37:58.450Z,17.13
2023-05-11T13:40:26.260Z,17.70
2023-05-11T13:42:56.614Z,18.67
2023-05-11T13:45:24.403Z,16.63
2023-05-11T13:47:51.991Z,15.07
2023-05-11T13:50:19.736Z,16.70
2023-05-11T13:52:47.768Z,17.23
2023-05-11T13:55:15.467Z,16.23
2023-05-11T13:57:43.141Z,18.27
2023-05-11T14:00:13.065Z,16.90
2023-05-11T14:02:40.845Z,17.30
2023-05-11T14:05:09.554Z,16.83
2023-05-11T14:07:47.128Z,17.97
2023-05-11T14:10:15.841Z,18.03
2023-05-11T14:12:43.950Z,18.20
2023-05-11T14:15:13.302Z,15.07
2023-05-11T14:17:42.725Z,13.53
2023-05-11T14:20:11.972Z,7.10
2023-05-11T14:22:40.891Z,5.50
2023-05-11T14:25:09.361Z,6.20
2023-05-11T14:27:37.170Z,6.07
2023-05-11T14:30:05.432Z,4.80
2023-05-11T14:32:34.489Z,6.10
2023-05-11T14:35:02.209Z,7.20
2023-05-11T14:37:30.280Z,6.33
2023-05-11T14:39:58.336Z,5.60
2023-05-11T14:42:26.170Z,6.10
2023-05-11T14:44:53.758Z,6.33
2023-05-11T14:47:21.425Z,6.20
2023-05-11T14:49:50.541Z,5.83
2023-05-11T14:52:18.195Z,5.60
2023-05-11T14:54:45.852Z,6.00
2023-05-11T14:57:13.579Z,5.50
2023-05-11T14:59:51.293Z,6.10
2023-05-11T15:02:26.527Z,6.83
2023-05-11T15:04:55.929Z,7.50
2023-05-11T15:07:23.565Z,7.80
2023-05-11T15:09:51.191Z,7.63
2023-05-11T15:12:18.816Z,7.90
2023-05-11T15:14:46.424Z,7.83
2023-05-11T15:17:14.059Z,7.23
2023-05-11T15:19:41.734Z,7.10
2023-05-11T15:22:11.009Z,7.10
2023-05-11T15:24:38.763Z,6.20
2023-05-11T15:27:06.891Z,9.43
2023-05-11T15:29:34.686Z,6.53
2023-05-11T15:32:02.607Z,6.00
2023-05-11T15:34:30.588Z,5.33
2023-05-11T15:36:58.636Z,6.20
2023-05-11T15:39:27.904Z,5.00
2023-05-11T15:41:55.573Z,4.87
2023-05-11T15:44:23.212Z,5.17
2023-05-11T15:46:50.961Z,4.50
2023-05-11T15:49:18.599Z,4.63
2023-05-11T15:51:46.210Z,4.27
2023-05-11T15:54:13.820Z,4.73
2023-05-11T15:56:42.911Z,4.30
2023-05-11T15:59:10.542Z,4.80
2023-05-11T16:01:38.318Z,5.40
2023-05-11T16:04:06.478Z,4.80
2023-05-11T16:06:34.683Z,4.30
2023-05-11T16:09:02.301Z,4.70
2023-05-11T16:11:29.876Z,5.03
2023-05-11T16:13:59.073Z,5.07
2023-05-11T16:16:28.129Z,5.40
2023-05-11T16:18:56.019Z,5.37
2023-05-11T16:21:23.700Z,4.30
2023-05-11T16:23:51.280Z,4.40
2023-05-11T16:26:19.222Z,4.67
2023-05-11T16:28:46.905Z,4.70
2023-05-11T16:31:15.916Z,4.07
2023-05-11T16:33:43.567Z,3.63
2023-05-11T16:36:11.367Z,2.93
2023-05-11T16:38:38.959Z,3.67
2023-05-11T16:41:06.825Z,2.90
2023-05-11T16:43:34.481Z,2.80
2023-05-11T16:46:03.251Z,2.80
2023-05-11T16:48:32.258Z,2.33
2023-05-11T16:50:59.928Z,2.87
2023-05-11T16:53:27.898Z,2.90
2023-05-11T16:55:55.934Z,2.60
2023-05-11T16:58:23.977Z,2.50
2023-05-11T17:00:51.756Z,2.40
2023-05-11T17:03:19.998Z,2.70
2023-05-11T17:05:49.182Z,3.20
2023-05-11T17:08:17.069Z,2.70
2023-05-11T17:10:44.748Z,2.70
2023-05-11T17:13:12.395Z,2.70
2023-05-11T17:15:40.090Z,3.37
2023-05-11T17:18:07.741Z,3.27
2023-05-11T17:20:35.642Z,3.27
2023-05-11T17:23:04.939Z,3.90
2023-05-11T17:25:32.570Z,3.47
2023-05-11T17:28:01.502Z,3.67
2023-05-11T17:30:36.348Z,4.10
2023-05-11T17:33:14.842Z,3.73
2023-05-11T17:35:42.560Z,4.53
2023-05-11T17:38:11.583Z,3.83
2023-05-11T17:40:39.254Z,3.67
2023-05-11T17:43:07.014Z,3.67
2023-05-11T17:45:34.920Z,4.23
2023-05-11T17:48:02.679Z,4.10
2023-05-11T17:50:30.306Z,4.00
2023-05-11T17:52:57.947Z,4.97
2023-05-11T17:55:27.356Z,5.57
2023-05-11T17:57:55.019Z,4.10
2023-05-11T18:00:23.138Z,5.20
2023-05-11T18:02:51.046Z,4.60
2023-05-11T18:05:18.729Z,4.00
2023-05-11T18:07:46.346Z,3.90
2023-05-11T18:10:14.038Z,4.30
2023-05-11T18:12:43.020Z,4.00
2023-05-11T18:15:11.836Z,4.10
2023-05-11T18:17:39.846Z,3.67
2023-05-11T18:20:09.100Z,4.10
2023-05-11T18:22:36.735Z,5.30
2023-05-11T18:25:04.829Z,4.23
2023-05-11T18:27:32.486Z,4.00
2023-05-11T18:30:01.910Z,4.50
2023-05-11T18:32:29.552Z,4.33
2023-05-11T18:34:57.182Z,4.70
2023-05-11T18:37:24.761Z,4.20
2023-05-11T18:39:52.427Z,4.83
2023-05-11T18:42:20.086Z,4.93
2023-05-11T18:44:47.707Z,5.10
2023-05-11T18:47:17.542Z,4.83
2023-05-11T18:49:46.545Z,5.10
2023-05-11T18:52:15.326Z,4.90
2023-05-11T18:54:42.929Z,6.43
2023-05-11T18:57:11.296Z,4.53
2023-05-11T18:59:39.056Z,5.80
2023-05-11T19:02:07.354Z,5.57
2023-05-11T19:04:36.321Z,6.10
2023-05-11T19:07:04.382Z,4.90
2023-05-11T19:09:32.093Z,6.30
2023-05-11T19:11:59.680Z,6.93
2023-05-11T19:14:27.450Z,6.27
2023-05-11T19:16:55.215Z,6.40
2023-05-11T19:19:23.027Z,6.20
2023-05-11T19:21:52.607Z,5.53
2023-05-11T19:24:20.176Z,5.47
2023-05-11T19:26:58.928Z,5.80
2023-05-11T19:29:33.253Z,5.50
2023-05-11T19:32:01.091Z,4.93
2023-05-11T19:34:28.832Z,5.80
2023-05-11T19:36:58.958Z,5.37
2023-05-11T19:39:26.711Z,6.30
2023-05-11T19:41:54.361Z,6.80
2023-05-11T19:44:22.047Z,7.13
2023-05-11T19:46:49.660Z,6.20
2023-05-11T19:49:18.177Z,6.97
2023-05-11T19:51:45.783Z,6.50
2023-05-11T19:54:15.391Z,7.50
2023-05-11T19:56:42.993Z,6.93
2023-05-11T19:59:10.638Z,7.43
2023-05-11T20:01:38.279Z,8.47
2023-05-11T20:04:07.101Z,6.83
2023-05-11T20:06:34.973Z,7.00
2023-05-11T20:09:02.664Z,9.40
2023-05-11T20:11:31.836Z,8.40
2023-05-11T20:14:00.639Z,8.63
2023-05-11T20:16:28.426Z,9.30
2023-05-11T20:18:56.118Z,9.60
2023-05-11T20:21:23.774Z,10.20
2023-05-11T20:23:51.371Z,9.10
2023-05-11T20:26:18.995Z,9.07
2023-05-11T20:28:47.923Z,8.60
2023-05-11T20:31:15.582Z,8.80
2023-05-11T20:36:14.964Z,9.93
2023-05-11T20:38:42.779Z,10.27
2023-05-11T20:41:10.633Z,11.00
2023-05-11T20:43:38.933Z,10.57
2023-05-11T20:46:07.989Z,11.27
2023-05-11T20:48:39.951Z,8.90
2023-05-11T20:51:09.113Z,12.50
2023-05-11T20:53:36.763Z,11.40
2023-05-11T20:56:04.531Z,9.37
2023-05-11T20:58:32.391Z,10.13
2023-05-11T21:01:00.064Z,11.03
2023-05-11T21:03:29.160Z,10.13
2023-05-11T21:05:57.043Z,10.37
2023-05-11T21:08:24.641Z,10.97
2023-05-11T21:10:53.037Z,13.57
2023-05-11T21:13:20.652Z,15.70
2023-05-11T21:15:48.240Z,14.20
2023-05-11T21:18:15.828Z,16.00
2023-05-11T21:20:44.768Z,18.37
2023-05-11T21:23:14.103Z,16.63
2023-05-11T21:25:41.725Z,16.77
2023-05-11T21:28:12.360Z,15.83
2023-05-11T21:30:40.079Z,17.10
2023-05-11T21:33:07.802Z,17.67
2023-05-11T21:35:35.478Z,17.00
2023-05-11T21:38:04.410Z,19.53
2023-05-11T21:40:32.209Z,19.37
2023-05-11T21:42:59.825Z,19.17
2023-05-11T21:45:27.571Z,21.10
2023-05-11T21:47:55.210Z,21.47
2023-05-11T21:50:22.817Z,19.53
2023-05-11T21:52:50.466Z,21.30
2023-05-11T21:55:19.654Z,18.97
2023-05-11T21:57:47.222Z,19.87
2023-05-11T22:00:18.495Z,18.60
2023-05-11T22:02:46.727Z,20.30
2023-05-11T22:05:14.355Z,18.03
2023-05-11T22:07:41.994Z,21.20
2023-05-11T22:10:10.405Z,17.73
2023-05-11T22:12:39.620Z,21.17
2023-05-11T22:15:08.745Z,19.67
2023-05-11T22:17:37.180Z,18.87
2023-05-11T22:20:06.402Z,20.67
2023-05-11T22:22:34.297Z,21.70
2023-05-11T22:25:01.972Z,18.13
2023-05-11T22:27:29.741Z,18.27
2023-05-11T22:29:58.773Z,18.30
2023-05-11T22:32:26.434Z,17.70
2023-05-11T22:34:58.290Z,21.30
2023-05-11T22:37:26.482Z,18.23
2023-05-11T22:39:54.744Z,19.77
2023-05-11T22:42:23.200Z,21.47
2023-05-11T22:44:50.951Z,21.27
2023-05-11T22:47:19.992Z,19.53
2023-05-11T22:49:47.653Z,19.57
2023-05-11T22:52:15.292Z,19.53
2023-05-11T22:54:43.006Z,16.87
2023-05-11T22:57:13.383Z,18.23
2023-05-11T22:59:41.208Z,16.70
2023-05-11T23:02:08.933Z,17.00
2023-05-11T23:04:38.427Z,15.70
2023-05-11T23:07:07.717Z,18.10
2023-05-11T23:09:35.447Z,17.20
2023-05-11T23:12:03.404Z,14.87
2023-05-11T23:14:31.054Z,19.30
2023-05-11T23:16:58.693Z,16.30
2023-05-11T23:19:26.390Z,16.23
2023-05-11T23:21:55.370Z,17.90
2023-05-11T23:24:23.040Z,16.90
2023-05-11T23:26:50.686Z,15.70
2023-05-11T23:29:18.399Z,13.47
2023-05-11T23:31:46.194Z,13.60
2023-05-11T23:34:13.921Z,14.63
2023-05-11T23:36:42.022Z,14.03
2023-05-11T23:39:11.220Z,11.97
2023-05-11T23:41:38.893Z,12.23
2023-05-11T23:44:06.729Z,11.17
2023-05-11T23:46:34.394Z,9.57
2023-05-11T23:49:02.045Z,10.20
2023-05-11T23:51:29.735Z,10.83
2023-05-11T23:53:57.526Z,10.10
2023-05-11T23:56:26.632Z,9.40
2023-05-11T23:58:54.342Z,9.43
